Time;durP1;ratioP1;P1;durP2;ratioP2;P2;SDS_P1;SDS_P2;PMS_P1;PMS_P2;Temp;Humidity;BMP_temperature;BMP_pressure;BME280_temperature;BME280_humidity;BME280_pressure;Samples;Min_cycle;Max_cycle;Signal;HPM_P1;HPM_P2
2023/06/05 00:00:49;;;;;;;9.57;4.43;;;;;;;15.54;45.18;101089.78;123158;1101;104281;-73
2023/06/05 00:03:43;;;;;;;13.10;3.90;;;;;;;15.51;45.49;101097.64;123097;1102;104847;-72
2023/06/05 00:06:14;;;;;;;9.67;3.63;;;;;;;15.49;46.16;101096.68;123047;1102;104367;-72
2023/06/05 00:08:46;;;;;;;14.07;4.10;;;;;;;15.45;45.85;101093.96;123265;1102;104696;-73
2023/06/05 00:11:17;;;;;;;9.43;3.60;;;;;;;15.44;45.55;101092.20;123081;1102;104350;-72
2023/06/05 00:13:48;;;;;;;9.55;3.70;;;;;;;15.42;46.05;101091.23;123280;1100;104262;-72
2023/06/05 00:16:19;;;;;;;13.07;4.20;;;;;;;15.36;45.91;101093.72;123207;1101;104299;-73
2023/06/05 00:18:51;;;;;;;11.60;4.03;;;;;;;15.33;45.79;101093.64;123082;1102;104501;-73
2023/06/05 00:21:23;;;;;;;12.60;4.00;;;;;;;15.31;45.81;101086.55;123116;1102;104270;-73
2023/06/05 00:23:54;;;;;;;16.97;3.83;;;;;;;15.27;46.08;101081.19;123122;1102;104297;-72
2023/06/05 00:26:26;;;;;;;12.47;3.97;;;;;;;15.27;47.01;101088.23;123156;1101;104255;-72
2023/06/05 00:28:58;;;;;;;10.70;3.97;;;;;;;15.25;46.62;101085.55;123125;1102;104306;-73
2023/06/05 00:31:29;;;;;;;12.27;4.00;;;;;;;15.24;47.08;101077.58;123295;1102;104332;-73
2023/06/05 00:34:00;;;;;;;14.77;4.80;;;;;;;15.22;47.25;101084.55;123229;1100;104345;-74
2023/06/05 00:36:32;;;;;;;14.27;4.37;;;;;;;15.18;47.52;101080.06;123079;1102;104386;-73
2023/06/05 00:39:04;;;;;;;16.23;4.37;;;;;;;15.16;46.89;101080.02;123144;1102;104245;-73
2023/06/05 00:41:36;;;;;;;12.63;4.73;;;;;;;15.15;47.08;101077.34;123133;1100;104390;-73
2023/06/05 00:44:07;;;;;;;11.30;4.77;;;;;;;15.16;47.57;101082.66;123202;1100;104818;-73
2023/06/05 00:46:39;;;;;;;14.03;4.70;;;;;;;15.15;47.44;101072.94;123164;1102;104328;-73
2023/06/05 00:49:11;;;;;;;13.40;4.63;;;;;;;15.14;48.25;101067.61;123199;1101;104271;-73
2023/06/05 00:51:45;;;;;;;10.73;4.40;;;;;;;15.17;48.57;101072.97;123103;1102;104272;-73
2023/06/05 00:54:17;;;;;;;11.70;4.50;;;;;;;15.19;48.61;101061.59;123195;1101;104365;-73
2023/06/05 00:56:48;;;;;;;11.23;4.10;;;;;;;15.23;48.53;101070.48;123128;1102;104325;-74
2023/06/05 00:59:20;;;;;;;10.60;4.07;;;;;;;15.23;47.61;101075.78;123099;1102;104751;-73
2023/06/05 01:01:53;;;;;;;11.50;3.50;;;;;;;15.22;47.67;101071.33;123176;1102;104277;-73
2023/06/05 01:04:27;;;;;;;8.37;3.10;;;;;;;15.22;48.63;101069.61;123167;1102;104261;-73
2023/06/05 01:06:57;;;;;;;;;;;;;;;15.24;47.25;101069.64;123153;1100;104268;-73
2023/06/05 01:09:28;;;;;;;10.13;3.43;;;;;;;15.25;48.11;101069.69;123049;1102;104418;-73
2023/06/05 01:12:04;;;;;;;11.30;3.57;;;;;;;15.27;48.13;101073.25;123209;1102;104213;-72
2023/06/05 01:14:40;;;;;;;9.53;3.70;;;;;;;15.28;48.58;101068.84;123191;1102;104380;-73
2023/06/05 01:17:13;;;;;;;8.93;3.33;;;;;;;15.25;48.49;101072.33;123117;1102;104842;-72
2023/06/05 01:19:45;;;;;;;9.50;3.10;;;;;;;15.24;48.64;101077.58;123285;1102;104380;-73
2023/06/05 01:22:17;;;;;;;7.10;3.50;;;;;;;15.17;49.10;101075.62;123232;1100;104402;-73
2023/06/05 01:24:48;;;;;;;9.20;3.57;;;;;;;15.19;48.38;101073.89;123136;1102;104248;-73
2023/06/05 01:27:28;;;;;;;14.00;3.93;;;;;;;15.21;48.37;101075.73;123206;1102;104245;-73
2023/06/05 01:30:04;;;;;;;14.80;4.23;;;;;;;15.20;49.05;101075.70;123136;1101;104300;-73
2023/06/05 01:32:40;;;;;;;13.43;4.23;;;;;;;15.21;49.27;101075.73;123083;1100;104258;-73
2023/06/05 01:35:16;;;;;;;7.70;3.90;;;;;;;15.24;49.55;101069.64;123121;1100;104553;-72
2023/06/05 01:37:50;;;;;;;10.25;4.10;;;;;;;15.25;48.95;101071.41;123104;1102;104303;-72
2023/06/05 01:40:25;;;;;;;13.23;4.20;;;;;;;15.25;48.96;101079.34;123087;1102;104290;-73
2023/06/05 01:42:59;;;;;;;12.65;4.25;;;;;;;15.27;48.96;101077.66;123116;1102;104392;-73
2023/06/05 01:45:31;;;;;;;10.97;3.97;;;;;;;15.28;49.86;101082.95;123206;1102;104248;-73
2023/06/05 01:48:03;;;;;;;12.10;4.40;;;;;;;15.26;49.56;101079.38;123181;1102;104762;-73
2023/06/05 01:50:37;;;;;;;9.47;4.10;;;;;;;15.26;49.51;101081.14;123309;1102;104363;-73
2023/06/05 01:53:10;;;;;;;11.30;4.23;;;;;;;15.25;49.99;101092.56;123142;1102;104246;-73
2023/06/05 01:55:42;;;;;;;13.98;4.00;;;;;;;15.22;49.33;101090.75;123187;1102;104254;-73
2023/06/05 01:58:15;;;;;;;13.23;4.17;;;;;;;15.15;49.37;101090.55;123144;1102;104309;-72
2023/06/05 02:00:46;;;;;;;12.20;4.03;;;;;;;15.09;49.46;101093.91;123041;1102;104326;-73
2023/06/05 02:03:17;;;;;;;10.90;4.47;;;;;;;15.05;50.64;101103.52;123247;1101;104297;-73
2023/06/05 02:05:51;;;;;;;11.47;4.80;;;;;;;14.99;50.49;101099.80;123339;1101;104716;-73
2023/06/05 02:08:22;;;;;;;14.30;4.90;;;;;;;14.91;50.55;101107.52;123311;1102;104270;-72
2023/06/05 02:10:54;;;;;;;12.87;4.50;;;;;;;14.87;50.98;101108.30;123270;1102;104412;-72
2023/06/05 02:13:27;;;;;;;12.50;4.20;;;;;;;14.89;50.01;101099.54;123405;1101;104416;-73
2023/06/05 02:16:00;;;;;;;7.93;3.63;;;;;;;14.88;51.36;101104.78;123126;1102;104293;-72
2023/06/05 02:18:32;;;;;;;6.75;3.35;;;;;;;14.88;51.13;101104.78;123168;1102;104271;-72
2023/06/05 02:21:03;;;;;;;9.80;3.73;;;;;;;14.83;50.13;101099.37;123183;1102;104370;-72
2023/06/05 02:23:34;;;;;;;8.70;3.47;;;;;;;14.77;51.11;101095.67;123124;1102;104334;-73
2023/06/05 02:26:06;;;;;;;7.37;3.00;;;;;;;14.76;50.26;101099.16;123111;1101;104354;-73
2023/06/05 02:28:37;;;;;;;9.30;3.20;;;;;;;14.78;50.42;101100.11;123167;1102;104271;-73
2023/06/05 02:31:08;;;;;;;9.23;3.93;;;;;;;14.77;50.10;101096.55;123196;1101;104271;-73
2023/06/05 02:33:39;;;;;;;9.03;3.47;;;;;;;14.76;50.91;101100.07;123214;1101;104277;-73
2023/06/05 02:36:15;;;;;;;8.50;3.67;;;;;;;14.77;50.43;101101.84;123227;1102;104291;-73
2023/06/05 02:38:49;;;;;;;14.97;3.50;;;;;;;14.81;50.25;101098.44;123146;1102;104357;-74
2023/06/05 02:41:21;;;;;;;10.33;3.27;;;;;;;14.85;50.47;101099.41;123145;1102;104273;-74
2023/06/05 02:43:53;;;;;;;12.60;4.03;;;;;;;14.87;50.82;101103.90;123097;1102;104224;-73
2023/06/05 02:46:25;;;;;;;12.20;4.30;;;;;;;14.89;51.05;101104.83;123202;1102;104418;-73
2023/06/05 02:48:57;;;;;;;14.87;4.27;;;;;;;14.91;51.72;101110.16;123208;1102;104354;-72
2023/06/05 02:51:28;;;;;;;15.90;4.47;;;;;;;14.92;52.00;101106.67;123090;1102;104268;-72
2023/06/05 02:54:00;;;;;;;14.93;4.63;;;;;;;14.95;50.99;101117.33;123313;1102;104271;-73
2023/06/05 02:56:32;;;;;;;15.67;4.20;;;;;;;14.96;51.87;101115.56;123196;1102;104342;-73
2023/06/05 02:59:03;;;;;;;18.00;4.60;;;;;;;14.94;51.89;101127.84;123165;1102;104418;-73
2023/06/05 03:01:37;;;;;;;23.27;4.60;;;;;;;14.89;51.38;101120.67;123201;1102;104345;-73
2023/06/05 03:04:12;;;;;;;17.37;4.67;;;;;;;14.85;51.46;101129.39;123154;1102;104268;-73
2023/06/05 03:06:44;;;;;;;20.93;5.47;;;;;;;14.80;50.81;101125.70;123172;1102;104245;-73
2023/06/05 03:09:16;;;;;;;18.77;5.50;;;;;;;14.77;51.75;101130.90;123288;1102;104291;-73
2023/06/05 03:11:47;;;;;;;19.93;4.77;;;;;;;14.78;51.37;101129.17;123170;1102;104245;-73
2023/06/05 03:14:18;;;;;;;15.47;4.53;;;;;;;14.81;50.91;101130.14;123211;1102;104324;-72
2023/06/05 03:16:51;;;;;;;14.90;4.80;;;;;;;14.87;51.45;101129.44;123146;1100;104811;-73
2023/06/05 03:19:22;;;;;;;20.23;4.73;;;;;;;14.91;50.95;101126.92;123215;1101;104283;-75
2023/06/05 03:21:55;;;;;;;17.37;4.43;;;;;;;14.97;51.10;101127.94;123194;1100;104287;-72
2023/06/05 03:24:27;;;;;;;20.70;5.10;;;;;;;15.01;51.13;101130.70;123166;1100;104845;-73
2023/06/05 03:27:01;;;;;;;19.93;4.50;;;;;;;15.05;51.54;101126.39;123172;1101;104313;-73
2023/06/05 03:29:33;;;;;;;20.60;4.67;;;;;;;15.11;51.24;101123.91;123197;1102;104390;-73
2023/06/05 03:32:05;;;;;;;16.90;4.53;;;;;;;15.14;51.83;101133.69;123330;1102;104361;-73
2023/06/05 03:34:37;;;;;;;17.70;4.80;;;;;;;15.22;51.79;101137.42;123226;1102;104268;-73
2023/06/05 03:37:08;;;;;;;17.77;4.70;;;;;;;15.30;51.41;101134.98;123362;1101;104293;-73
2023/06/05 03:39:39;;;;;;;14.87;4.20;;;;;;;15.36;51.36;101129.86;123291;1102;104278;-73
2023/06/05 03:42:11;;;;;;;12.80;4.43;;;;;;;15.40;51.79;101129.98;123183;1102;104223;-74
2023/06/05 03:44:42;;;;;;;14.60;4.15;;;;;;;15.42;51.00;101130.02;123365;1101;104354;-73
2023/06/05 03:47:14;;;;;;;14.80;4.27;;;;;;;15.42;51.47;101128.27;123167;1102;104294;-73
2023/06/05 03:49:47;;;;;;;15.30;4.20;;;;;;;15.42;51.01;101125.62;123262;1102;104290;-73
2023/06/05 03:52:23;;;;;;;17.23;4.40;;;;;;;15.45;51.92;101132.75;123639;1102;104326;-73
2023/06/05 03:54:55;;;;;;;15.75;4.10;;;;;;;15.51;51.79;101132.91;123341;1102;104424;-73
2023/06/05 03:57:26;;;;;;;14.87;4.57;;;;;;;15.58;51.74;101132.22;123180;1101;104364;-74
2023/06/05 03:59:58;;;;;;;15.63;4.53;;;;;;;15.65;51.81;101141.20;123236;1102;104300;-74
2023/06/05 04:02:29;;;;;;;11.97;3.90;;;;;;;15.68;51.01;101138.63;123175;1103;104303;-75
2023/06/05 04:05:00;;;;;;;14.70;3.80;;;;;;;15.69;50.29;101137.78;123225;1102;104248;-75
2023/06/05 04:07:32;;;;;;;11.90;3.80;;;;;;;15.71;51.00;101130.77;123139;1100;104302;-73
2023/06/05 04:10:04;;;;;;;10.50;3.60;;;;;;;15.74;51.06;101127.31;123173;1102;104242;-75
2023/06/05 04:12:35;;;;;;;14.90;3.93;;;;;;;15.76;50.80;101131.77;123327;1101;104219;-75
2023/06/05 04:15:10;;;;;;;13.53;3.73;;;;;;;15.79;50.34;101126.58;123365;1102;104319;-75
2023/06/05 04:17:41;;;;;;;11.73;4.03;;;;;;;15.86;50.60;101138.20;123623;1102;104274;-74
2023/06/05 04:20:27;;;;;;;12.00;3.90;;;;;;;15.91;49.86;101140.95;123437;1102;104408;-75
2023/06/05 04:22:59;;;;;;;14.17;3.40;;;;;;;15.99;50.11;101140.30;123469;1102;104194;-74
2023/06/05 04:25:31;;;;;;;12.27;3.90;;;;;;;16.09;49.79;101140.52;123672;1100;104255;-74
2023/06/05 04:28:03;;;;;;;8.60;3.23;;;;;;;16.15;49.79;101138.89;124512;1100;104162;-77
2023/06/05 04:30:34;;;;;;;9.27;3.03;;;;;;;16.21;49.99;101151.39;123471;1102;104350;-76
2023/06/05 04:33:06;;;;;;;9.90;3.30;;;;;;;16.30;48.94;101137.48;123459;1102;104419;-77
2023/06/05 04:35:38;;;;;;;11.13;3.30;;;;;;;16.37;48.59;101142.03;123412;1102;104239;-76
2023/06/05 04:38:09;;;;;;;5.87;3.10;;;;;;;16.46;49.28;101142.23;123732;1102;104265;-77
2023/06/05 04:40:40;;;;;;;8.70;2.73;;;;;;;16.58;48.94;101148.65;123781;1102;104287;-76
2023/06/05 04:43:12;;;;;;;8.90;2.70;;;;;;;16.70;47.98;101148.91;123865;1102;104264;-77
2023/06/05 04:45:43;;;;;;;8.70;2.50;;;;;;;16.87;48.26;101150.17;124055;1102;104392;-76
2023/06/05 04:48:15;;;;;;;7.67;2.87;;;;;;;17.07;48.07;101147.92;123923;1102;104338;-76
2023/06/05 04:50:47;;;;;;;7.30;2.63;;;;;;;17.31;47.68;101151.93;123924;1102;104413;-80
2023/06/05 04:53:19;;;;;;;10.63;3.37;;;;;;;17.57;46.87;101152.37;124626;1102;104184;-78
2023/06/05 04:55:50;;;;;;;5.33;2.50;;;;;;;17.88;46.98;101144.04;124158;1101;104272;-80
2023/06/05 04:58:25;;;;;;;8.07;2.43;;;;;;;18.16;46.37;101145.39;124180;1102;104332;-76
2023/06/05 05:01:04;;;;;;;11.83;2.97;;;;;;;18.36;46.07;101140.36;124152;1102;104169;-76
2023/06/05 05:03:37;;;;;;;19.50;2.47;;;;;;;18.58;45.93;101153.95;123975;1102;104271;-77
2023/06/05 05:06:19;;;;;;;5.13;2.33;;;;;;;18.76;45.67;101148.87;124177;1102;104182;-77
2023/06/05 05:08:57;;;;;;;4.53;2.17;;;;;;;18.88;45.02;101147.26;124044;1102;104248;-77
2023/06/05 05:11:28;;;;;;;5.50;2.47;;;;;;;19.00;44.45;101150.95;124044;1102;104233;-75
2023/06/05 05:14:00;;;;;;;5.63;2.40;;;;;;;19.14;44.10;101140.46;124608;1102;104243;-74
2023/06/05 05:16:32;;;;;;;7.87;2.33;;;;;;;19.28;43.91;101143.27;124031;1102;104331;-73
2023/06/05 05:19:06;;;;;;;5.35;2.05;;;;;;;19.38;43.65;101150.48;124495;1102;104191;-80
2023/06/05 05:21:43;;;;;;;5.07;2.30;;;;;;;19.47;43.84;101154.98;124272;1102;102940;-81
2023/06/05 05:24:16;;;;;;;8.53;2.20;;;;;;;19.54;43.46;101148.84;124094;1102;104240;-77
2023/06/05 05:26:47;;;;;;;8.50;2.30;;;;;;;19.58;43.09;101152.41;124335;1102;104165;-74
2023/06/05 05:29:19;;;;;;;5.00;2.20;;;;;;;19.66;42.68;101149.82;124440;1102;104303;-74
2023/06/05 05:31:53;;;;;;;8.20;2.30;;;;;;;19.71;42.41;101151.66;124399;1102;104269;-80
2023/06/05 05:34:27;;;;;;;7.20;2.40;;;;;;;19.81;41.93;101154.44;124339;1101;102052;-78
2023/06/05 05:37:01;;;;;;;7.43;2.40;;;;;;;19.86;42.19;101155.35;124358;1102;104230;-76
2023/06/05 05:39:31;;;;;;;;;;;;;;;19.95;41.28;101157.20;124121;1102;104226;-76
2023/06/05 05:42:02;;;;;;;6.17;2.70;;;;;;;19.90;41.70;101157.17;124002;1102;104223;-73
2023/06/05 05:44:34;;;;;;;7.63;2.30;;;;;;;19.91;40.46;101158.94;124232;1101;104319;-75
2023/06/05 05:47:07;;;;;;;4.17;1.87;;;;;;;19.94;41.29;101150.97;124372;1102;104178;-75
2023/06/05 05:49:38;;;;;;;4.70;2.20;;;;;;;19.99;41.19;101153.66;124380;1102;104418;-76
2023/06/05 05:52:10;;;;;;;7.03;2.70;;;;;;;20.00;41.23;101163.45;124380;1102;104345;-74
2023/06/05 05:54:41;;;;;;;5.73;2.50;;;;;;;19.98;40.50;101166.10;124015;1102;104399;-76
2023/06/05 05:57:16;;;;;;;5.00;2.50;;;;;;;20.01;40.56;101163.46;124338;1102;101839;-75
2023/06/05 05:59:48;;;;;;;9.13;2.90;;;;;;;20.07;40.18;101160.84;124526;1102;104165;-78
2023/06/05 06:02:24;;;;;;;9.40;2.60;;;;;;;20.16;40.21;101164.44;124457;1102;104501;-79
2023/06/05 06:04:56;;;;;;;7.40;2.57;;;;;;;20.24;40.18;101158.30;124323;1102;104223;-77
2023/06/05 06:07:52;;;;;;;8.43;3.00;;;;;;;20.36;39.87;101170.78;124582;1100;104230;-79
2023/06/05 06:10:29;;;;;;;7.13;2.70;;;;;;;20.56;39.93;101167.36;124849;1102;103249;-78
2023/06/05 06:13:07;;;;;;;8.75;2.90;;;;;;;20.79;40.39;101160.38;124765;1100;101984;-77
2023/06/05 06:16:01;;;;;;;7.77;2.80;;;;;;;21.02;39.85;101162.25;125128;1099;104440;-77
2023/06/05 06:18:40;;;;;;;8.23;2.57;;;;;;;21.24;38.96;101155.19;124521;1101;104287;-81
2023/06/05 06:21:20;;;;;;;8.88;2.92;;;;;;;21.45;39.59;101150.77;124487;1102;102531;-79
2023/06/05 06:24:10;;;;;;;11.47;2.70;;;;;;;21.69;39.30;101161.51;125142;1102;104720;-80
2023/06/05 06:26:48;;;;;;;9.13;3.07;;;;;;;21.84;39.24;101157.05;124448;1102;118131;-79
2023/06/05 06:29:40;;;;;;;9.13;3.10;;;;;;;21.90;39.50;101155.25;124552;1102;103579;-80
2023/06/05 06:35:51;;;;;;;7.53;2.60;;;;;;;22.04;38.58;101162.37;124137;1102;104185;-78
2023/06/05 06:38:58;;;;;;;8.17;2.53;;;;;;;22.05;38.88;101169.52;124107;1102;104169;-75
2023/06/05 06:41:33;;;;;;;10.27;2.80;;;;;;;22.05;38.26;101165.05;124227;1102;104312;-75
2023/06/05 06:44:10;;;;;;;9.50;2.20;;;;;;;22.19;37.93;101166.80;124123;1102;102923;-74
2023/06/05 06:46:41;;;;;;;6.90;2.30;;;;;;;22.35;37.43;101170.39;124324;1102;104166;-78
2023/06/05 06:49:12;;;;;;;8.80;2.60;;;;;;;22.48;37.89;101169.44;124426;1102;104278;-74
2023/06/05 06:51:44;;;;;;;6.90;2.40;;;;;;;22.64;37.26;101164.05;124556;1102;102564;-76
2023/06/05 06:54:16;;;;;;;8.97;2.43;;;;;;;22.77;37.26;101165.79;124442;1099;104191;-71
2023/06/05 06:56:47;;;;;;;9.23;2.43;;;;;;;22.92;36.86;101165.73;124249;1101;104893;-73
2023/06/05 06:59:19;;;;;;;9.17;2.60;;;;;;;23.05;36.82;101171.02;124383;1102;103010;-75
2023/06/05 07:02:11;;;;;;;6.33;2.40;;;;;;;23.20;36.09;101165.59;124483;1102;104214;-73
2023/06/05 07:04:44;;;;;;;6.00;2.20;;;;;;;23.25;35.73;101161.11;124454;1102;102299;-74
2023/06/05 07:07:40;;;;;;;9.30;2.07;;;;;;;23.33;35.81;101164.62;124477;1102;104265;-78
2023/06/05 07:10:25;;;;;;;2.42;1.95;;;;;;;23.33;35.38;101155.71;124605;1102;104258;-76
2023/06/05 07:16:29;;;;;;;6.00;1.90;;;;;;;23.64;34.83;101164.41;125121;1102;102208;-75
2023/06/05 07:19:03;;;;;;;5.23;2.20;;;;;;;23.68;34.51;101160.81;125180;1102;102865;-79
2023/06/05 07:21:37;;;;;;;6.83;2.10;;;;;;;23.79;34.29;101157.14;124754;1101;104270;-76
2023/06/05 07:24:14;;;;;;;3.33;1.90;;;;;;;23.91;33.89;101167.78;124744;1102;104278;-77
2023/06/05 07:26:45;;;;;;;3.00;1.87;;;;;;;23.93;33.11;101163.29;124576;1100;104185;-79
2023/06/05 07:29:20;;;;;;;5.73;1.90;;;;;;;23.99;33.48;101160.55;124387;1102;103675;-80
2023/06/05 07:31:51;;;;;;;5.50;2.07;;;;;;;24.03;32.84;101154.27;124509;1102;104243;-83
2023/06/05 07:34:24;;;;;;;5.60;2.00;;;;;;;24.16;32.73;101148.79;124474;1101;104480;-76
2023/06/05 07:36:56;;;;;;;3.67;2.10;;;;;;;24.23;31.97;101150.48;124303;1102;102295;-82
2023/06/05 07:39:32;;;;;;;2.27;1.60;;;;;;;24.23;32.55;101156.75;124826;1101;104217;-77
2023/06/05 07:42:07;;;;;;;4.90;1.70;;;;;;;24.30;32.26;101154.89;124447;1102;104230;-74
2023/06/05 07:44:39;;;;;;;1.53;1.43;;;;;;;24.36;31.90;101154.83;124428;1102;104236;-76
2023/06/05 07:47:15;;;;;;;2.37;1.67;;;;;;;24.39;31.34;101144.06;126170;1099;103580;-77
2023/06/05 07:49:59;;;;;;;9.43;1.90;;;;;;;24.48;30.40;101150.22;126033;1101;101970;-79
2023/06/05 07:52:37;;;;;;;4.20;1.40;;;;;;;24.60;30.01;101159.96;126342;1100;102610;-79
2023/06/05 07:55:23;;;;;;;2.53;1.57;;;;;;;24.70;30.29;101150.91;126159;1102;101991;-78
2023/06/05 07:58:01;;;;;;;4.97;1.60;;;;;;;24.84;30.09;101156.98;126158;1100;102165;-82
2023/06/05 08:00:50;;;;;;;2.27;1.53;;;;;;;25.01;29.84;101151.39;125648;1102;106850;-78
2023/06/05 08:03:25;;;;;;;6.10;1.40;;;;;;;25.17;29.55;101152.05;124426;1102;103087;-78
2023/06/05 08:05:58;;;;;;;2.07;1.40;;;;;;;25.31;29.34;101151.87;124570;1102;104245;-74
2023/06/05 08:08:29;;;;;;;4.10;1.70;;;;;;;25.39;28.92;101147.27;124544;1102;103639;-75
2023/06/05 08:11:02;;;;;;;3.27;1.30;;;;;;;25.48;28.57;101147.12;124658;1102;104223;-79
2023/06/05 08:13:44;;;;;;;1.80;1.37;;;;;;;25.47;28.66;101142.66;124493;1102;104189;-79
2023/06/05 08:16:17;;;;;;;3.10;1.10;;;;;;;25.47;28.62;101149.84;124405;1102;103097;-75
2023/06/05 08:18:49;;;;;;;2.97;1.77;;;;;;;25.37;28.26;101150.88;124525;1102;104163;-78
2023/06/05 08:21:22;;;;;;;4.60;1.37;;;;;;;25.25;28.03;101144.75;124378;1102;102608;-74
2023/06/05 08:24:14;;;;;;;3.00;1.70;;;;;;;25.27;27.93;101147.42;124637;1102;104248;-80
2023/06/05 08:26:54;;;;;;;5.90;1.50;;;;;;;25.37;27.68;101141.05;124722;1102;103603;-78
2023/06/05 08:29:29;;;;;;;4.53;1.30;;;;;;;25.41;26.82;101145.44;124229;1102;107947;-76
2023/06/05 08:32:03;;;;;;;2.50;1.33;;;;;;;25.50;26.24;101139.04;124391;1102;104274;-78
2023/06/05 08:34:35;;;;;;;3.33;1.60;;;;;;;25.81;26.74;101149.28;124389;1102;105028;-77
2023/06/05 08:37:11;;;;;;;1.42;1.32;;;;;;;25.97;26.35;101141.83;124492;1102;102921;-75
2023/06/05 08:39:53;;;;;;;1.23;1.00;;;;;;;26.04;26.71;101140.84;124579;1102;118496;-75
2023/06/05 08:48:07;;;;;;;3.70;1.43;;;;;;;26.21;26.24;101131.56;124515;1102;104230;-79
2023/06/05 08:51:06;;;;;;;2.87;1.37;;;;;;;26.30;26.13;101131.38;124308;1102;102277;-75
2023/06/05 08:54:12;;;;;;;1.73;1.20;;;;;;;26.28;25.71;101127.84;124513;1102;104423;-80
2023/06/05 09:00:12;;;;;;;5.43;1.80;;;;;;;26.54;25.67;101130.89;124386;1102;104201;-78
2023/06/05 09:03:13;;;;;;;2.20;1.07;;;;;;;26.75;25.29;101133.20;124297;1102;104237;-77
2023/06/05 09:05:53;;;;;;;2.57;1.47;;;;;;;26.64;24.61;101136.08;124418;1102;103087;-73
2023/06/05 09:08:33;;;;;;;2.10;1.20;;;;;;;26.50;24.67;101134.55;124498;1102;103038;-78
2023/06/05 09:11:28;;;;;;;2.47;1.63;;;;;;;26.54;24.94;101140.78;124490;1102;104632;-78
2023/06/05 09:14:10;;;;;;;1.43;1.27;;;;;;;26.65;24.65;101133.39;124723;1102;102829;-78
2023/06/05 09:16:45;;;;;;;2.13;1.33;;;;;;;26.79;24.62;101133.10;125411;1102;104258;-79
2023/06/05 09:19:24;;;;;;;2.07;1.17;;;;;;;26.93;24.31;101137.27;124402;1102;104178;-81
2023/06/05 09:22:16;;;;;;;;;;;;;;;;;;;;;
2023/06/05 09:25:06;;;;;;;2.00;1.30;;;;;;;26.68;24.12;101138.71;124377;1102;102879;-79
2023/06/05 09:27:38;;;;;;;2.57;1.40;;;;;;;26.65;24.47;101136.09;124296;1102;104808;-80
2023/06/05 09:30:18;;;;;;;3.00;1.67;;;;;;;26.78;24.21;101134.01;124241;1102;104312;-77
2023/06/05 09:32:50;;;;;;;2.37;1.50;;;;;;;26.92;24.55;101136.40;124414;1102;103045;-79
2023/06/05 09:35:22;;;;;;;5.73;2.10;;;;;;;26.80;24.16;101131.28;124705;1102;103277;-78
2023/06/05 09:37:53;;;;;;;3.47;1.47;;;;;;;26.60;24.61;101131.67;124654;1102;104165;-80
2023/06/05 09:43:40;;;;;;;4.40;1.87;;;;;;;26.50;24.45;101121.09;124559;1102;104272;-76
2023/06/05 09:46:16;;;;;;;4.70;1.60;;;;;;;26.46;24.26;101121.19;124271;1105;104337;-80
2023/06/05 09:48:54;;;;;;;2.27;1.57;;;;;;;26.29;23.81;101118.87;124461;1102;104224;-75
2023/06/05 09:51:43;;;;;;;6.07;1.70;;;;;;;26.10;24.34;101112.94;125973;1102;101944;-76
2023/06/05 09:54:30;;;;;;;3.80;1.70;;;;;;;26.13;24.36;101102.13;125900;1101;102512;-81
2023/06/05 09:57:09;;;;;;;4.83;1.57;;;;;;;26.34;24.73;101107.08;125039;1106;102723;-77
2023/06/05 09:59:51;;;;;;;2.60;1.80;;;;;;;26.42;24.86;101104.23;124247;1102;104280;-76
2023/06/05 10:02:44;;;;;;;3.63;1.73;;;;;;;26.55;24.44;101100.38;124401;1103;104226;-77
2023/06/05 10:05:19;;;;;;;6.33;1.70;;;;;;;26.71;24.18;101095.58;124403;1102;118346;-80
2023/06/05 10:07:53;;;;;;;2.80;2.00;;;;;;;26.82;24.34;101089.08;124344;1104;103687;-76
2023/06/05 10:10:30;;;;;;;4.67;1.87;;;;;;;26.73;24.24;101101.80;124360;1102;104223;-75
2023/06/05 10:13:06;;;;;;;2.90;1.77;;;;;;;26.81;24.22;101096.25;124237;1102;102412;-77
2023/06/05 10:15:42;;;;;;;3.83;1.80;;;;;;;26.81;24.08;101096.25;124270;1105;104328;-78
2023/06/05 10:18:14;;;;;;;2.77;1.87;;;;;;;26.86;24.03;101088.95;124194;1102;104235;-77
2023/06/05 10:20:50;;;;;;;2.80;1.63;;;;;;;26.90;24.09;101090.66;124318;1103;104165;-81
2023/06/05 10:23:25;;;;;;;6.83;1.80;;;;;;;26.96;23.51;101077.97;124377;1105;102205;-76
2023/06/05 10:25:59;;;;;;;4.67;2.07;;;;;;;26.80;23.33;101083.73;124233;1105;104307;-76
2023/06/05 10:28:58;;;;;;;4.73;1.90;;;;;;;26.64;23.88;101072.36;124301;1103;102683;-76
2023/06/05 10:31:46;;;;;;;3.97;1.50;;;;;;;26.70;23.89;101083.03;124507;1102;102858;-77
2023/06/05 10:34:36;;;;;;;2.50;1.50;;;;;;;26.72;23.17;101080.30;124381;1105;104235;-79
2023/06/05 10:37:48;;;;;;;4.63;1.60;;;;;;;26.90;23.51;101079.02;124329;1105;104309;-75
2023/06/05 10:40:20;;;;;;;2.00;1.50;;;;;;;26.93;23.63;101067.27;124222;1105;104313;-79
2023/06/05 10:42:55;;;;;;;5.77;2.23;;;;;;;26.89;23.82;101069.16;124174;1102;102634;-78
2023/06/05 10:45:34;;;;;;;3.77;1.77;;;;;;;26.94;23.32;101061.84;124262;1105;102809;-81
2023/06/05 10:48:16;;;;;;;2.80;1.90;;;;;;;26.95;23.56;101073.52;124454;1105;104274;-79
2023/06/05 10:50:48;;;;;;;1.70;1.50;;;;;;;26.93;23.49;101068.17;124359;1102;104258;-81
2023/06/05 10:53:46;;;;;;;9.33;2.00;;;;;;;26.98;23.69;101068.07;124308;1102;104118;-79
2023/06/05 10:56:51;;;;;;;5.73;1.90;;;;;;;27.06;23.88;101064.25;124406;1102;104190;-78
2023/06/05 10:59:42;;;;;;;3.35;1.77;;;;;;;27.03;23.30;101064.33;115801;1106;10001272;-77
2023/06/05 11:02:28;;;;;;;3.73;1.67;;;;;;;26.98;23.41;101062.69;124197;1103;104248;-77
2023/06/05 11:05:21;;;;;;;5.13;1.57;;;;;;;26.94;23.10;101052.89;124182;1102;101999;-80
2023/06/05 11:08:28;;;;;;;1.63;1.53;;;;;;;26.90;23.69;101058.35;124185;1102;104242;-79
2023/06/05 11:11:09;;;;;;;2.58;1.77;;;;;;;26.84;23.69;101054.92;124099;1102;101854;-76
2023/06/05 11:14:01;;;;;;;2.63;1.83;;;;;;;26.88;23.52;101049.44;124161;1102;104245;-75
2023/06/05 11:16:37;;;;;;;6.17;1.80;;;;;;;27.04;23.32;101054.46;123882;1105;104325;-76
2023/06/05 11:19:38;;;;;;;3.27;1.80;;;;;;;27.10;23.21;101054.31;125293;1102;104303;-79
2023/06/05 11:22:13;;;;;;;3.75;2.15;;;;;;;27.08;23.40;101046.27;124424;1102;103642;-76
2023/06/05 11:24:44;;;;;;;;;;;;;;;27.19;23.65;101046.01;124378;1102;102684;-79
2023/06/05 11:27:44;;;;;;;3.23;1.43;;;;;;;27.24;23.18;101052.16;124705;1102;102905;-78
2023/06/05 11:30:16;;;;;;;1.80;1.40;;;;;;;27.10;23.40;101048.92;124317;1102;104306;-75
2023/06/05 11:32:58;;;;;;;6.37;1.90;;;;;;;27.07;23.54;101039.10;124350;1102;104252;-80
2023/06/05 11:35:35;;;;;;;1.43;1.30;;;;;;;27.10;23.57;101038.16;124188;1102;104340;-79
2023/06/05 11:38:13;;;;;;;4.17;1.87;;;;;;;27.02;23.37;101035.64;124132;1102;102703;-75
2023/06/05 11:40:47;;;;;;;3.25;1.90;;;;;;;26.95;23.13;101041.21;124372;1102;104240;-79
2023/06/05 11:43:20;;;;;;;2.87;1.60;;;;;;;26.98;23.35;101051.91;124008;1102;104382;-77
2023/06/05 11:45:56;;;;;;;2.95;1.52;;;;;;;26.78;23.12;101034.41;124291;1102;104296;-74
2023/06/05 11:48:27;;;;;;;4.60;1.70;;;;;;;26.75;23.05;101038.98;124157;1102;105328;-78
2023/06/05 11:51:03;;;;;;;4.27;1.73;;;;;;;26.76;23.13;101033.56;124060;1102;104390;-77
2023/06/05 11:53:37;;;;;;;4.08;1.85;;;;;;;26.82;23.29;101040.63;125144;1101;104169;-81
2023/06/05 11:56:16;;;;;;;2.77;1.60;;;;;;;26.88;23.25;101043.14;124257;1102;104293;-73
2023/06/05 11:58:49;;;;;;;6.33;1.73;;;;;;;26.97;23.49;101036.66;124247;1102;104214;-77
2023/06/05 12:01:22;;;;;;;3.07;1.97;;;;;;;27.00;23.27;101031.20;124469;1102;104169;-82
2023/06/05 12:04:07;;;;;;;5.92;1.72;;;;;;;27.00;23.43;101025.82;124520;1102;104156;-79
2023/06/05 12:06:48;;;;;;;5.13;1.83;;;;;;;26.90;23.23;101022.47;124925;1102;104191;-75
2023/06/05 12:09:27;;;;;;;6.60;1.63;;;;;;;26.91;23.45;101024.22;124354;1102;103937;-81